createdAt,value
2022-08-22T00:00:09.492Z,15.57
2022-08-22T00:01:04.708Z,15.57
2022-08-22T00:02:00.058Z,15.57
2022-08-22T00:02:54.358Z,17.01
2022-08-22T00:02:57.786Z,15.89
2022-08-22T00:03:02.620Z,16.85
2022-08-22T00:03:04.819Z,16.94
2022-08-22T00:03:08.817Z,18.01
2022-08-22T00:03:10.647Z,15.87
2022-08-22T00:03:15.045Z,15.89
2022-08-22T00:03:52.866Z,15.53
2022-08-22T00:04:47.769Z,15.50
2022-08-22T00:05:42.843Z,15.48
2022-08-22T00:06:38.225Z,15.44
2022-08-22T00:07:33.920Z,15.45
2022-08-22T00:08:29.179Z,15.48
2022-08-22T00:09:24.295Z,15.46
2022-08-22T00:10:25.224Z,15.46
2022-08-22T00:11:15.919Z,15.42
2022-08-22T00:12:11.714Z,15.39
2022-08-22T00:13:06.915Z,15.38
2022-08-22T00:14:02.257Z,15.36
2022-08-22T00:14:57.314Z,15.38
2022-08-22T00:15:52.690Z,15.38
2022-08-22T00:16:47.799Z,15.40
2022-08-22T00:17:43.204Z,15.42
2022-08-22T00:18:39.006Z,15.45
2022-08-22T00:19:34.263Z,15.46
2022-08-22T00:20:29.472Z,15.44
2022-08-22T00:21:25.272Z,15.41
2022-08-22T00:22:20.363Z,15.41
2022-08-22T00:23:15.482Z,15.38
2022-08-22T00:24:10.722Z,15.37
2022-08-22T00:25:05.816Z,15.38
2022-08-22T00:26:00.919Z,15.37
2022-08-22T00:26:56.030Z,15.29
2022-08-22T00:27:51.119Z,15.22
2022-08-22T00:28:46.124Z,15.12
2022-08-22T00:29:41.240Z,15.07
2022-08-22T00:30:36.367Z,15.03
2022-08-22T00:31:31.559Z,14.98
2022-08-22T00:32:26.629Z,14.93
2022-08-22T00:33:21.743Z,14.91
2022-08-22T00:34:16.868Z,14.93
2022-08-22T00:35:11.845Z,14.96
2022-08-22T00:36:06.969Z,14.98
2022-08-22T00:37:02.041Z,14.99
2022-08-22T00:37:57.097Z,15.01
2022-08-22T00:38:52.372Z,15.03
2022-08-22T00:39:47.397Z,15.01
2022-08-22T00:40:42.365Z,14.93
2022-08-22T00:41:37.425Z,14.89
2022-08-22T00:42:32.492Z,14.85
2022-08-22T00:43:27.618Z,14.81
2022-08-22T00:44:22.594Z,14.74
2022-08-22T00:45:17.659Z,14.68
2022-08-22T00:46:12.766Z,14.62
2022-08-22T00:47:09.486Z,14.62
2022-08-22T00:48:04.595Z,14.70
2022-08-22T00:48:59.698Z,14.81
2022-08-22T00:49:54.670Z,14.88
2022-08-22T00:50:49.743Z,14.86
2022-08-22T00:51:44.814Z,14.88
2022-08-22T00:52:39.891Z,14.98
2022-08-22T00:53:34.990Z,15.06
2022-08-22T00:54:30.000Z,15.10
2022-08-22T00:55:25.070Z,15.14
2022-08-22T00:56:20.123Z,15.16
2022-08-22T00:57:15.126Z,15.15
2022-08-22T00:58:10.212Z,15.12
2022-08-22T00:59:18.021Z,15.11
2022-08-22T01:00:01.256Z,15.05
2022-08-22T01:00:55.390Z,15.03
2022-08-22T01:01:52.483Z,15.03
2022-08-22T01:02:52.287Z,15.03
2022-08-22T01:03:43.649Z,14.99
2022-08-22T01:04:37.691Z,14.94
2022-08-22T01:05:32.717Z,14.87
2022-08-22T01:06:27.792Z,14.80
2022-08-22T01:07:22.911Z,14.79
2022-08-22T01:08:17.916Z,14.83
2022-08-22T01:09:12.887Z,14.84
2022-08-22T01:10:07.977Z,14.84
2022-08-22T01:11:02.985Z,14.88
2022-08-22T01:11:58.096Z,14.89
2022-08-22T01:12:53.355Z,14.89
2022-08-22T01:13:48.453Z,14.90
2022-08-22T01:14:43.560Z,14.87
2022-08-22T01:15:39.369Z,14.86
2022-08-22T01:16:34.598Z,14.89
2022-08-22T01:17:30.508Z,14.91
2022-08-22T01:18:25.631Z,14.91
2022-08-22T01:19:21.047Z,14.90
2022-08-22T01:20:16.851Z,14.87
2022-08-22T01:21:12.087Z,14.84
2022-08-22T01:22:07.437Z,14.79
2022-08-22T01:23:03.506Z,14.74
2022-08-22T01:23:58.742Z,14.75
2022-08-22T01:24:54.562Z,14.76
2022-08-22T01:25:49.795Z,14.72
2022-08-22T01:26:45.112Z,14.64
2022-08-22T01:27:41.473Z,14.60
2022-08-22T01:28:36.705Z,14.52
2022-08-22T01:29:32.661Z,14.48
2022-08-22T01:30:27.736Z,14.43
2022-08-22T01:31:23.110Z,14.40
2022-08-22T01:32:18.785Z,14.40
2022-08-22T01:33:14.076Z,14.39
2022-08-22T01:34:12.765Z,14.35
2022-08-22T01:35:05.562Z,14.30
2022-08-22T01:36:00.860Z,14.25
2022-08-22T01:36:56.662Z,14.23
2022-08-22T01:37:51.878Z,14.23
2022-08-22T01:38:47.081Z,14.23
2022-08-22T01:39:42.865Z,14.23
2022-08-22T01:40:37.984Z,14.27
2022-08-22T01:41:34.965Z,14.32
2022-08-22T01:42:28.994Z,14.36
2022-08-22T01:43:51.219Z,14.40
2022-08-22T01:44:22.061Z,14.44
2022-08-22T01:45:16.128Z,14.50
2022-08-22T01:46:11.468Z,14.51
2022-08-22T01:47:07.554Z,14.53
2022-08-22T01:48:02.838Z,14.53
2022-08-22T01:48:58.680Z,14.50
2022-08-22T01:49:53.906Z,14.46
2022-08-22T01:50:49.155Z,14.46
2022-08-22T01:51:44.835Z,14.46
2022-08-22T01:52:40.091Z,14.45
2022-08-22T01:53:35.914Z,14.46
2022-08-22T01:54:31.113Z,14.45
2022-08-22T01:55:26.494Z,14.41
2022-08-22T01:56:22.186Z,14.37
2022-08-22T01:57:17.410Z,14.30
2022-08-22T01:58:12.538Z,14.22
2022-08-22T01:59:10.950Z,14.17
2022-08-22T02:00:03.559Z,14.09
2022-08-22T02:00:58.640Z,14.07
2022-08-22T02:01:54.034Z,14.03
2022-08-22T02:02:49.706Z,13.96
2022-08-22T02:03:45.013Z,13.88
2022-08-22T02:04:40.741Z,13.80
2022-08-22T02:05:36.035Z,13.72
2022-08-22T02:06:31.343Z,13.65
2022-08-22T02:07:32.101Z,13.63
2022-08-22T02:08:23.315Z,13.65
2022-08-22T02:09:17.543Z,13.66
2022-08-22T02:10:12.541Z,13.64
2022-08-22T02:11:07.601Z,13.63
2022-08-22T02:12:02.663Z,13.62
2022-08-22T02:12:57.717Z,13.60
2022-08-22T02:13:52.781Z,13.60
2022-08-22T02:14:47.848Z,13.59
2022-08-22T02:15:44.018Z,13.57
2022-08-22T02:16:38.207Z,13.57
2022-08-22T02:17:33.795Z,13.61
2022-08-22T02:18:28.859Z,13.67
2022-08-22T02:19:23.824Z,13.70
2022-08-22T02:20:20.452Z,13.71
2022-08-22T02:21:13.922Z,13.69
2022-08-22T02:22:09.142Z,13.68
2022-08-22T02:23:04.253Z,13.69
2022-08-22T02:23:59.395Z,13.72
2022-08-22T02:24:54.364Z,13.76
2022-08-22T02:25:49.472Z,13.77
2022-08-22T02:26:44.533Z,13.79
2022-08-22T02:27:39.666Z,13.79
2022-08-22T02:28:34.880Z,13.81
2022-08-22T02:29:30.283Z,13.79
2022-08-22T02:30:25.380Z,13.81
2022-08-22T02:31:20.492Z,13.83
2022-08-22T02:32:15.619Z,13.89
2022-08-22T02:33:11.969Z,13.94
2022-08-22T02:34:07.152Z,14.00
2022-08-22T02:35:02.311Z,14.08
2022-08-22T02:35:57.517Z,14.11
2022-08-22T02:36:52.621Z,14.15
2022-08-22T02:37:48.998Z,14.18
2022-08-22T02:38:44.083Z,14.17
2022-08-22T02:39:39.380Z,14.15
2022-08-22T02:40:34.488Z,14.15
2022-08-22T02:41:31.037Z,14.16
2022-08-22T02:42:24.922Z,14.15
2022-08-22T02:43:20.071Z,14.13
2022-08-22T02:44:15.267Z,14.11
2022-08-22T02:45:10.635Z,14.09
2022-08-22T02:46:05.742Z,14.07
2022-08-22T02:47:00.767Z,14.03
2022-08-22T02:47:55.857Z,14.03
2022-08-22T02:48:51.076Z,14.03
2022-08-22T02:49:46.435Z,13.99
2022-08-22T02:50:41.509Z,13.96
2022-08-22T02:51:36.742Z,13.90
2022-08-22T02:52:31.975Z,13.81
2022-08-22T02:53:27.218Z,13.69
2022-08-22T02:54:22.417Z,13.63
2022-08-22T02:55:17.545Z,13.58
2022-08-22T02:56:12.687Z,13.53
2022-08-22T02:57:14.303Z,13.48
2022-08-22T02:58:03.894Z,13.42
2022-08-22T02:59:00.024Z,13.40
2022-08-22T02:59:53.285Z,13.36
2022-08-22T03:00:48.605Z,13.38
2022-08-22T03:01:43.721Z,13.44
2022-08-22T03:02:38.952Z,13.50
2022-08-22T03:03:34.189Z,13.57
2022-08-22T03:04:29.297Z,13.60
2022-08-22T03:05:24.389Z,13.66
2022-08-22T03:06:19.389Z,13.67
2022-08-22T03:07:14.451Z,13.66
2022-08-22T03:08:09.560Z,13.68
2022-08-22T03:09:04.585Z,13.69
2022-08-22T03:09:59.579Z,13.67
2022-08-22T03:10:54.660Z,13.66
2022-08-22T03:11:49.746Z,13.65
2022-08-22T03:12:44.890Z,13.67
2022-08-22T03:13:40.121Z,13.64
2022-08-22T03:14:35.366Z,13.61
2022-08-22T03:15:30.366Z,13.60
2022-08-22T03:16:25.381Z,13.59
2022-08-22T03:17:20.594Z,13.59
2022-08-22T03:18:15.821Z,13.56
2022-08-22T03:19:18.337Z,13.50
2022-08-22T03:20:07.076Z,13.47
2022-08-22T03:21:01.084Z,13.43
2022-08-22T03:21:56.111Z,13.41
2022-08-22T03:22:51.185Z,13.43
2022-08-22T03:23:46.251Z,13.45
2022-08-22T03:24:41.365Z,13.51
2022-08-22T03:25:36.353Z,13.54
2022-08-22T03:26:31.531Z,13.58
2022-08-22T03:27:32.106Z,13.59
2022-08-22T03:28:22.486Z,13.55
2022-08-22T03:29:16.524Z,13.60
2022-08-22T03:30:11.741Z,13.72
2022-08-22T03:31:07.112Z,13.81
2022-08-22T03:32:02.279Z,13.79
2022-08-22T03:32:57.341Z,13.75
2022-08-22T03:33:52.485Z,13.67
2022-08-22T03:34:47.560Z,13.60
2022-08-22T03:35:42.689Z,13.55
2022-08-22T03:36:37.780Z,13.58
2022-08-22T03:37:32.900Z,13.54
2022-08-22T03:38:27.909Z,13.48
2022-08-22T03:39:22.969Z,13.46
2022-08-22T03:40:18.105Z,13.47
2022-08-22T03:41:13.084Z,13.45
2022-08-22T03:42:08.065Z,13.39
2022-08-22T03:43:03.147Z,13.33
2022-08-22T03:43:58.256Z,13.29
2022-08-22T03:44:53.366Z,13.25
2022-08-22T03:45:48.469Z,13.19
2022-08-22T03:46:43.587Z,13.17
2022-08-22T03:47:38.674Z,13.15
2022-08-22T03:48:33.801Z,13.12
2022-08-22T03:49:28.993Z,13.08
2022-08-22T03:50:24.226Z,13.07
2022-08-22T03:51:19.349Z,13.14
2022-08-22T03:52:14.456Z,13.23
2022-08-22T03:53:10.281Z,13.30
2022-08-22T03:54:05.825Z,13.34
2022-08-22T03:54:59.862Z,13.35
2022-08-22T03:55:54.993Z,13.36
2022-08-22T03:56:49.930Z,13.40
2022-08-22T03:57:45.012Z,13.39
2022-08-22T03:58:40.142Z,13.32
2022-08-22T03:59:35.354Z,13.33
2022-08-22T04:00:31.649Z,13.38
2022-08-22T04:01:25.611Z,13.38
2022-08-22T04:02:27.512Z,13.39
2022-08-22T04:03:16.989Z,13.41
2022-08-22T04:04:11.874Z,13.44
2022-08-22T04:05:07.288Z,13.44
2022-08-22T04:06:02.558Z,13.42
2022-08-22T04:06:57.701Z,13.44
2022-08-22T04:07:52.918Z,13.43
2022-08-22T04:08:48.028Z,13.50
2022-08-22T04:09:46.030Z,13.54
2022-08-22T04:10:41.193Z,13.53
2022-08-22T04:11:36.336Z,13.53
2022-08-22T04:12:31.517Z,13.58
2022-08-22T04:13:26.665Z,13.64
2022-08-22T04:14:21.668Z,13.68
2022-08-22T04:15:16.677Z,13.69
2022-08-22T04:16:11.836Z,13.72
2022-08-22T04:17:06.847Z,13.70
2022-08-22T04:18:01.900Z,13.65
2022-08-22T04:18:57.034Z,13.67
2022-08-22T04:19:52.124Z,13.65
2022-08-22T04:20:47.201Z,13.62
2022-08-22T04:21:42.255Z,13.56
2022-08-22T04:22:37.372Z,13.51
2022-08-22T04:23:32.455Z,13.44
2022-08-22T04:24:27.493Z,13.38
2022-08-22T04:25:22.563Z,13.35
2022-08-22T04:26:17.552Z,13.30
2022-08-22T04:27:12.578Z,13.26
2022-08-22T04:28:07.579Z,13.27
2022-08-22T04:29:02.573Z,13.28
2022-08-22T04:29:57.631Z,13.27
2022-08-22T04:30:52.668Z,13.26
2022-08-22T04:31:47.703Z,13.24
2022-08-22T04:32:46.455Z,13.23
2022-08-22T04:33:41.601Z,13.22
2022-08-22T04:34:36.649Z,13.19
2022-08-22T04:35:31.687Z,13.12
2022-08-22T04:36:26.682Z,13.05
2022-08-22T04:37:21.667Z,13.02
2022-08-22T04:38:16.682Z,13.02
2022-08-22T04:39:11.696Z,13.03
2022-08-22T04:40:06.733Z,13.04
2022-08-22T04:41:04.575Z,13.04
2022-08-22T04:42:06.962Z,13.01
2022-08-22T04:42:52.992Z,12.99
2022-08-22T04:43:47.788Z,12.95
2022-08-22T04:44:43.069Z,12.97
2022-08-22T04:45:38.615Z,12.99
2022-08-22T04:46:36.862Z,13.06
2022-08-22T04:47:29.671Z,13.15
2022-08-22T04:48:25.525Z,13.20
2022-08-22T04:49:20.856Z,13.23
2022-08-22T04:50:16.276Z,13.21
2022-08-22T04:51:12.011Z,13.19
2022-08-22T04:52:07.341Z,13.21
2022-08-22T04:53:02.651Z,13.27
2022-08-22T04:53:58.952Z,13.36
2022-08-22T04:54:54.283Z,13.40
2022-08-22T04:55:50.134Z,13.39
2022-08-22T04:56:45.421Z,13.41
2022-08-22T04:57:40.787Z,13.40
2022-08-22T04:58:36.573Z,13.41
2022-08-22T04:59:31.925Z,13.44
2022-08-22T05:00:27.691Z,13.48
2022-08-22T05:01:22.968Z,13.52
2022-08-22T05:02:18.281Z,13.56
2022-08-22T05:03:14.007Z,13.62
2022-08-22T05:04:09.358Z,13.71
2022-08-22T05:05:04.705Z,13.74
2022-08-22T05:06:02.020Z,13.76
2022-08-22T05:06:56.397Z,13.80
2022-08-22T05:07:52.290Z,13.82
2022-08-22T05:08:48.393Z,13.84
2022-08-22T05:09:44.428Z,13.84
2022-08-22T05:10:38.789Z,13.83
2022-08-22T05:11:34.673Z,13.83
2022-08-22T05:12:29.996Z,13.88
2022-08-22T05:13:25.417Z,13.87
2022-08-22T05:14:20.467Z,13.85
2022-08-22T05:15:15.533Z,13.84
2022-08-22T05:16:12.462Z,13.84
2022-08-22T05:17:07.515Z,13.81
2022-08-22T05:18:02.597Z,13.78
2022-08-22T05:18:57.679Z,13.79
2022-08-22T05:19:52.725Z,13.82
2022-08-22T05:20:47.772Z,13.83
2022-08-22T05:21:42.911Z,13.83
2022-08-22T05:22:38.001Z,13.82
2022-08-22T05:23:33.124Z,13.82
2022-08-22T05:24:28.298Z,13.80
2022-08-22T05:25:23.142Z,13.82
2022-08-22T05:26:18.391Z,13.80
2022-08-22T05:27:13.795Z,13.80
2022-08-22T05:28:09.211Z,13.79
2022-08-22T05:29:04.935Z,13.80
2022-08-22T05:30:00.323Z,13.84
2022-08-22T05:30:56.240Z,13.89
2022-08-22T05:31:51.547Z,13.90
2022-08-22T05:32:46.880Z,13.92
2022-08-22T05:33:42.689Z,13.95
2022-08-22T05:34:38.060Z,14.03
2022-08-22T05:35:33.559Z,14.05
2022-08-22T05:36:29.779Z,14.05
2022-08-22T05:37:25.176Z,14.07
2022-08-22T05:38:20.859Z,14.09
2022-08-22T05:39:16.224Z,14.12
2022-08-22T05:40:11.750Z,14.11
2022-08-22T05:41:07.022Z,14.14
2022-08-22T05:42:02.479Z,14.11
2022-08-22T05:42:57.886Z,14.13
2022-08-22T05:43:52.975Z,14.14
2022-08-22T05:44:48.074Z,14.16
2022-08-22T05:45:43.495Z,14.21
2022-08-22T05:46:38.307Z,14.25
2022-08-22T05:47:33.390Z,14.28
2022-08-22T05:48:28.487Z,14.29
2022-08-22T05:49:23.593Z,14.30
2022-08-22T05:50:18.699Z,14.33
2022-08-22T05:51:13.803Z,14.37
2022-08-22T05:52:08.919Z,14.43
2022-08-22T05:53:05.247Z,14.47
2022-08-22T05:54:00.617Z,14.55
2022-08-22T05:54:56.001Z,14.62
2022-08-22T05:55:51.453Z,14.68
2022-08-22T05:56:46.428Z,14.70
2022-08-22T05:57:41.429Z,14.75
2022-08-22T05:58:36.593Z,14.79
2022-08-22T05:59:31.535Z,14.85
2022-08-22T06:00:26.543Z,14.84
2022-08-22T06:01:21.695Z,14.89
2022-08-22T06:02:16.808Z,14.93
2022-08-22T06:03:11.915Z,15.00
2022-08-22T06:04:07.058Z,15.02
2022-08-22T06:05:02.214Z,15.07
2022-08-22T06:05:57.150Z,15.14
2022-08-22T06:06:52.238Z,15.20
2022-08-22T06:07:47.235Z,15.23
2022-08-22T06:08:42.307Z,15.30
2022-08-22T06:09:37.424Z,15.38
2022-08-22T06:10:32.498Z,15.45
2022-08-22T06:11:32.692Z,15.55
2022-08-22T06:12:23.612Z,15.64
2022-08-22T06:13:24.339Z,15.74
2022-08-22T06:14:15.013Z,15.81
2022-08-22T06:15:12.061Z,15.90
2022-08-22T06:16:04.748Z,16.00
2022-08-22T06:17:00.124Z,16.08
2022-08-22T06:17:55.523Z,16.17
2022-08-22T06:18:51.059Z,16.27
2022-08-22T06:19:46.306Z,16.38
2022-08-22T06:20:41.685Z,16.47
2022-08-22T06:21:38.486Z,16.53
2022-08-22T06:22:32.423Z,16.60
2022-08-22T06:23:27.782Z,16.65
2022-08-22T06:24:23.212Z,16.69
2022-08-22T06:25:18.620Z,16.70
2022-08-22T06:26:21.284Z,16.66
2022-08-22T06:27:10.162Z,16.63
2022-08-22T06:28:04.187Z,16.63
2022-08-22T06:28:59.325Z,16.71
2022-08-22T06:29:54.417Z,16.84
2022-08-22T06:30:49.501Z,16.96
2022-08-22T06:31:44.604Z,17.10
2022-08-22T06:32:59.587Z,17.22
2022-08-22T06:33:35.714Z,17.25
2022-08-22T06:34:29.706Z,17.31
2022-08-22T06:35:24.803Z,17.38
2022-08-22T06:36:22.098Z,17.40
2022-08-22T06:37:17.188Z,17.41
2022-08-22T06:38:12.319Z,17.46
2022-08-22T06:39:07.297Z,17.54
2022-08-22T06:40:02.569Z,17.57
2022-08-22T06:40:57.894Z,17.65
2022-08-22T06:41:53.298Z,17.72
2022-08-22T06:42:48.678Z,17.77
2022-08-22T06:43:44.111Z,17.82
2022-08-22T06:44:39.481Z,17.91
2022-08-22T06:45:34.752Z,17.97
2022-08-22T06:46:29.590Z,18.04
2022-08-22T06:47:24.658Z,18.12
2022-08-22T06:48:19.757Z,18.20
2022-08-22T06:49:14.757Z,18.26
2022-08-22T06:50:13.705Z,18.35
2022-08-22T06:51:04.898Z,18.45
2022-08-22T06:52:00.524Z,18.54
2022-08-22T06:52:55.612Z,18.60
2022-08-22T06:53:50.971Z,18.61
2022-08-22T06:54:45.955Z,18.67
2022-08-22T06:55:41.130Z,18.79
2022-08-22T06:56:36.232Z,18.98
2022-08-22T06:57:31.627Z,19.11
2022-08-22T06:58:27.001Z,19.29
2022-08-22T06:59:23.874Z,19.43
2022-08-22T07:00:18.271Z,19.58
2022-08-22T07:01:13.672Z,19.69
2022-08-22T07:02:09.124Z,19.85
2022-08-22T07:03:04.531Z,20.02
2022-08-22T07:04:00.025Z,20.20
2022-08-22T07:04:55.319Z,20.37
2022-08-22T07:05:50.701Z,20.54
2022-08-22T07:06:46.084Z,20.62
2022-08-22T07:07:41.408Z,20.57
2022-08-22T07:08:39.168Z,20.53
2022-08-22T07:09:31.638Z,20.57
2022-08-22T07:10:26.813Z,20.67
2022-08-22T07:11:21.758Z,20.69
2022-08-22T07:12:16.848Z,20.66
2022-08-22T07:13:11.938Z,20.70
2022-08-22T07:14:07.050Z,20.66
2022-08-22T07:15:04.863Z,20.74
2022-08-22T07:16:00.028Z,20.97
2022-08-22T07:16:55.105Z,21.20
2022-08-22T07:17:50.111Z,21.33
2022-08-22T07:18:45.130Z,21.34
2022-08-22T07:19:40.218Z,21.38
2022-08-22T07:20:35.284Z,21.44
2022-08-22T07:21:30.378Z,21.39
2022-08-22T07:22:25.425Z,21.31
2022-08-22T07:23:20.497Z,21.30
2022-08-22T07:24:15.593Z,21.32
2022-08-22T07:25:10.707Z,21.41
2022-08-22T07:26:05.674Z,21.49
2022-08-22T07:27:00.687Z,21.52
2022-08-22T07:27:55.819Z,21.53
2022-08-22T07:28:58.563Z,21.57
2022-08-22T07:29:47.327Z,21.57
2022-08-22T07:30:44.749Z,21.62
2022-08-22T07:31:40.157Z,21.58
2022-08-22T07:32:35.602Z,21.61
2022-08-22T07:33:31.247Z,21.72
2022-08-22T07:34:26.657Z,21.88
2022-08-22T07:35:21.702Z,21.94
2022-08-22T07:36:16.713Z,22.11
2022-08-22T07:37:11.713Z,22.18
2022-08-22T07:38:06.820Z,22.37
2022-08-22T07:39:01.949Z,22.51
2022-08-22T07:39:56.974Z,22.59
2022-08-22T07:40:52.112Z,22.08
2022-08-22T07:41:47.282Z,21.82
2022-08-22T07:42:42.322Z,21.77
2022-08-22T07:43:37.325Z,21.88
2022-08-22T07:44:32.357Z,21.92
2022-08-22T07:45:27.402Z,21.69
2022-08-22T07:46:22.570Z,21.43
2022-08-22T07:47:21.861Z,21.42
2022-08-22T07:48:22.632Z,21.35
2022-08-22T07:49:10.344Z,21.29
2022-08-22T07:50:04.706Z,21.35
2022-08-22T07:51:00.229Z,21.55
2022-08-22T07:51:55.778Z,21.58
2022-08-22T07:52:51.237Z,21.62
2022-08-22T07:53:46.700Z,21.68
2022-08-22T07:54:42.247Z,21.89
2022-08-22T07:55:41.117Z,22.01
2022-08-22T07:56:34.207Z,22.18
2022-08-22T07:57:29.961Z,22.49
2022-08-22T07:58:23.692Z,22.69
2022-08-22T07:59:18.798Z,22.69
2022-08-22T08:00:13.829Z,22.47
2022-08-22T08:01:09.162Z,22.32
2022-08-22T08:02:04.165Z,22.15
2022-08-22T08:02:59.248Z,22.08
2022-08-22T08:03:54.305Z,22.25
2022-08-22T08:04:49.317Z,22.52
2022-08-22T08:05:44.441Z,22.82
2022-08-22T08:06:39.446Z,23.17
2022-08-22T08:07:35.910Z,23.40
2022-08-22T08:08:30.896Z,23.69
2022-08-22T08:09:25.958Z,24.03
2022-08-22T08:10:20.974Z,24.20
2022-08-22T08:11:16.491Z,24.33
2022-08-22T08:12:12.154Z,24.43
2022-08-22T08:13:07.679Z,24.47
2022-08-22T08:14:03.191Z,24.33
2022-08-22T08:14:58.630Z,24.14
2022-08-22T08:15:54.152Z,24.07
2022-08-22T08:16:49.559Z,24.18
2022-08-22T08:17:45.237Z,24.26
2022-08-22T08:18:40.771Z,24.27
2022-08-22T08:19:36.332Z,23.83
2022-08-22T08:20:31.880Z,23.43
2022-08-22T08:21:27.275Z,23.26
2022-08-22T08:22:22.792Z,23.35
2022-08-22T08:23:18.341Z,23.24
2022-08-22T08:24:14.567Z,23.17
2022-08-22T08:25:08.570Z,23.22
2022-08-22T08:26:03.563Z,23.54
2022-08-22T08:26:58.567Z,23.67
2022-08-22T08:27:53.638Z,23.33
2022-08-22T08:28:48.733Z,23.27
2022-08-22T08:29:43.715Z,23.22
2022-08-22T08:30:40.589Z,23.28
2022-08-22T08:31:35.723Z,23.21
2022-08-22T08:32:30.738Z,23.11
2022-08-22T08:33:26.716Z,22.76
2022-08-22T08:34:22.050Z,22.46
2022-08-22T08:35:17.590Z,22.63
2022-08-22T08:36:13.003Z,23.01
2022-08-22T08:37:08.527Z,23.22
2022-08-22T08:38:03.983Z,23.19
2022-08-22T08:38:59.520Z,22.96
2022-08-22T08:39:54.982Z,22.83
2022-08-22T08:40:50.284Z,22.84
2022-08-22T08:41:45.859Z,22.88
2022-08-22T08:42:41.397Z,23.00
2022-08-22T08:43:36.806Z,23.12
2022-08-22T08:44:32.338Z,23.29
2022-08-22T08:45:29.070Z,23.46
2022-08-22T08:46:23.137Z,23.72
2022-08-22T08:47:18.561Z,23.79
2022-08-22T08:48:14.237Z,23.81
2022-08-22T08:49:09.684Z,23.96
2022-08-22T08:50:05.213Z,24.07
2022-08-22T08:51:01.989Z,24.38
2022-08-22T08:51:56.153Z,24.71
2022-08-22T08:52:52.948Z,24.90
2022-08-22T08:53:47.227Z,25.01
2022-08-22T08:54:42.662Z,24.89
2022-08-22T08:55:38.064Z,25.05
2022-08-22T08:56:33.185Z,25.07
2022-08-22T08:57:28.184Z,25.20
2022-08-22T08:58:23.273Z,25.05
2022-08-22T08:59:18.392Z,24.71
2022-08-22T09:00:13.582Z,24.34
2022-08-22T09:01:08.572Z,24.20
2022-08-22T09:02:03.574Z,24.25
2022-08-22T09:02:58.672Z,24.39
2022-08-22T09:03:53.802Z,24.47
2022-08-22T09:04:48.952Z,24.62
2022-08-22T09:05:43.995Z,24.88
2022-08-22T09:06:38.999Z,25.06
2022-08-22T09:07:34.048Z,25.03
2022-08-22T09:08:29.037Z,25.07
2022-08-22T09:09:24.836Z,25.12
2022-08-22T09:10:19.833Z,25.09
2022-08-22T09:11:14.830Z,25.27
2022-08-22T09:12:09.841Z,25.60
2022-08-22T09:14:01.245Z,25.52
2022-08-22T09:14:55.707Z,25.44
2022-08-22T09:15:54.969Z,25.70
2022-08-22T09:16:51.277Z,25.88
2022-08-22T09:17:43.121Z,25.99
2022-08-22T09:18:38.557Z,25.97
2022-08-22T09:19:34.073Z,25.38
2022-08-22T09:20:29.729Z,25.01
2022-08-22T09:21:31.251Z,24.61
2022-08-22T09:22:21.687Z,24.51
2022-08-22T09:23:16.242Z,24.61
2022-08-22T09:24:11.688Z,24.56
2022-08-22T09:25:07.229Z,24.76
2022-08-22T09:26:05.020Z,24.99
2022-08-22T09:26:59.344Z,25.02
2022-08-22T09:27:54.986Z,24.96
2022-08-22T09:28:50.434Z,24.96
2022-08-22T09:29:54.580Z,25.04
2022-08-22T09:30:42.463Z,25.00
2022-08-22T09:31:48.339Z,24.89
2022-08-22T09:32:35.563Z,25.24
2022-08-22T09:33:30.069Z,25.06
2022-08-22T09:34:25.636Z,24.78
2022-08-22T09:35:22.460Z,24.92
2022-08-22T09:36:16.567Z,25.09
2022-08-22T09:37:14.128Z,25.28
2022-08-22T09:38:07.678Z,25.56
2022-08-22T09:39:04.316Z,25.53
2022-08-22T09:39:59.927Z,25.60
2022-08-22T09:40:55.477Z,25.69
2022-08-22T09:41:51.592Z,25.68
2022-08-22T09:42:46.440Z,25.78
2022-08-22T09:43:45.106Z,26.07
2022-08-22T09:44:39.600Z,26.31
2022-08-22T09:45:32.744Z,26.30
2022-08-22T09:46:29.559Z,26.07
2022-08-22T09:47:24.466Z,26.08
2022-08-22T09:48:17.989Z,26.27
2022-08-22T09:49:13.037Z,26.41
2022-08-22T09:50:08.175Z,26.26
2022-08-22T09:51:28.535Z,26.44
2022-08-22T09:52:03.652Z,26.49
2022-08-22T09:52:57.027Z,26.51
2022-08-22T09:53:53.037Z,26.64
2022-08-22T09:54:46.906Z,26.88
2022-08-22T09:55:42.603Z,27.01
2022-08-22T09:56:38.122Z,26.99
2022-08-22T09:57:33.613Z,27.04
2022-08-22T09:58:29.211Z,26.95
2022-08-22T09:59:24.254Z,27.05
2022-08-22T10:00:22.124Z,27.02
2022-08-22T10:01:14.501Z,26.91
2022-08-22T10:02:15.310Z,26.85
2022-08-22T10:03:05.572Z,26.77
2022-08-22T10:03:59.690Z,26.90
2022-08-22T10:04:54.743Z,27.01
2022-08-22T10:05:49.710Z,27.04
2022-08-22T10:06:44.817Z,27.05
2022-08-22T10:07:39.966Z,26.92
2022-08-22T10:08:37.334Z,26.43
2022-08-22T10:09:32.635Z,26.19
2022-08-22T10:10:28.151Z,26.30
2022-08-22T10:11:23.995Z,26.36
2022-08-22T10:12:19.355Z,26.60
2022-08-22T10:13:15.883Z,26.91
2022-08-22T10:14:10.267Z,27.33
2022-08-22T10:15:06.835Z,27.39
2022-08-22T10:16:01.358Z,27.40
2022-08-22T10:16:56.888Z,27.34
2022-08-22T10:17:52.285Z,27.42
2022-08-22T10:18:53.252Z,27.35
2022-08-22T10:19:44.172Z,27.13
2022-08-22T10:20:38.612Z,26.86
2022-08-22T10:21:35.267Z,26.77
2022-08-22T10:22:30.312Z,26.92
2022-08-22T10:23:25.028Z,27.16
2022-08-22T10:24:25.245Z,27.07
2022-08-22T10:25:18.513Z,26.60
2022-08-22T10:26:12.809Z,26.37
2022-08-22T10:27:09.197Z,26.45
2022-08-22T10:28:03.650Z,26.60
2022-08-22T10:28:59.413Z,26.86
2022-08-22T10:29:54.982Z,27.07
2022-08-22T10:30:50.231Z,27.13
2022-08-22T10:31:59.571Z,27.39
2022-08-22T10:32:42.947Z,27.54
2022-08-22T10:33:36.612Z,27.61
2022-08-22T10:34:32.041Z,27.59
2022-08-22T10:35:27.817Z,27.38
2022-08-22T10:36:23.722Z,26.85
2022-08-22T10:37:19.048Z,26.60
2022-08-22T10:38:18.042Z,26.47
2022-08-22T10:39:13.189Z,26.63
2022-08-22T10:40:08.743Z,26.87
2022-08-22T10:41:05.533Z,27.22
2022-08-22T10:42:00.682Z,27.40
2022-08-22T10:42:55.177Z,27.35
2022-08-22T10:43:57.487Z,27.28
2022-08-22T10:44:47.146Z,27.30
2022-08-22T10:45:41.604Z,27.53
2022-08-22T10:46:37.277Z,27.46
2022-08-22T10:47:32.657Z,27.19
2022-08-22T10:48:28.153Z,27.22
2022-08-22T10:49:29.324Z,27.26
2022-08-22T10:50:20.322Z,27.35
2022-08-22T10:51:14.595Z,27.39
2022-08-22T10:52:17.265Z,27.49
2022-08-22T10:53:06.665Z,27.73
2022-08-22T10:54:01.134Z,27.86
2022-08-22T10:54:56.788Z,28.03
2022-08-22T10:55:52.293Z,28.27
2022-08-22T10:56:47.774Z,28.61
2022-08-22T10:57:43.286Z,28.83
2022-08-22T10:58:38.796Z,28.94
2022-08-22T10:59:34.131Z,28.77
2022-08-22T11:00:32.931Z,28.53
2022-08-22T11:01:40.998Z,28.48
2022-08-22T11:02:24.815Z,28.72
2022-08-22T11:03:23.374Z,28.93
2022-08-22T11:04:15.794Z,29.03
2022-08-22T11:05:10.262Z,29.06
2022-08-22T11:06:05.781Z,28.95
2022-08-22T11:07:01.362Z,28.42
2022-08-22T11:07:56.883Z,27.86
2022-08-22T11:08:52.364Z,27.52
2022-08-22T11:09:47.462Z,27.11
2022-08-22T11:10:42.474Z,26.66
2022-08-22T11:11:37.574Z,26.37
2022-08-22T11:12:34.544Z,26.09
2022-08-22T11:13:27.766Z,25.92
2022-08-22T11:14:22.772Z,25.82
2022-08-22T11:15:34.528Z,25.67
2022-08-22T11:16:14.095Z,25.60
2022-08-22T11:17:20.479Z,25.69
2022-08-22T11:18:04.281Z,26.26
2022-08-22T11:19:02.937Z,26.84
2022-08-22T11:19:54.165Z,27.28
2022-08-22T11:20:48.292Z,27.62
2022-08-22T11:21:43.401Z,27.99
2022-08-22T11:22:38.520Z,28.34
2022-08-22T11:23:34.763Z,28.60
2022-08-22T11:24:34.800Z,28.47
2022-08-22T11:25:36.277Z,28.13
2022-08-22T11:26:29.191Z,28.28
2022-08-22T11:27:17.605Z,28.22
2022-08-22T11:28:12.062Z,28.22
2022-08-22T11:29:14.090Z,28.19
2022-08-22T11:30:03.991Z,27.96
2022-08-22T11:30:58.561Z,27.78
2022-08-22T11:31:53.939Z,27.63
2022-08-22T11:32:49.478Z,27.83
2022-08-22T11:33:47.409Z,27.81
2022-08-22T11:34:40.499Z,27.55
2022-08-22T11:35:35.906Z,27.27
2022-08-22T11:36:32.411Z,27.37
2022-08-22T11:37:42.550Z,27.85
2022-08-22T11:38:26.991Z,28.44
2022-08-22T11:39:19.907Z,28.97
2022-08-22T11:40:14.314Z,29.35
2022-08-22T11:41:09.982Z,29.70
2022-08-22T11:42:05.376Z,29.82
2022-08-22T11:43:02.994Z,29.74
2022-08-22T11:43:57.294Z,29.16
2022-08-22T11:44:52.755Z,28.91
2022-08-22T11:45:48.180Z,28.77
2022-08-22T11:46:43.669Z,28.37
2022-08-22T11:47:39.067Z,27.92